طرطوس, سوريا

03:46 PM EEST on ابریل 19, 2015 (GMT +0300)
Bassel Al-Assad International | | Change Station
CLOSE
Current Station
Airport
Location: Lattakia,
Elevation: 154 ft
Nearby Weather Stations

Elev 154 ft 35.40 °N, 35.95 °E | Updated 46 minutes ago

Scattered Clouds
غيوم متفرقة
66 °F
Feels Like 66 °F
N
9
ريح متغير ريح from WSW

هذا اليوم
High -- | Low -- °F
--% Chance of Precip.
Yesterday
High -- | Low -- °F
Precip. -- في
6:00 AM 7:11 PM
قمر جدید, 1% visible
الضغط 30.06 في
وضوح الرؤية 6.2 أميال
سحابات غيوم متفرقة 3000 ft
نقطة الندى 55 °F
الرطوبة 68%
Rainfall 0.00 في
عمق الثلج Not available.
الأشعة فوق البنفسجية 6 out of 12
Pollen Not available.
جودة الهواء Not available.
Flu Activity Not available.
METAR OSLK 191200Z 24008KT 9999 SCT030 19/13 Q1018

More Conditions Fewer Conditions

الضغط 30.06 في
وضوح الرؤية 6.2 أميال
سحابات غيوم متفرقة 3000 ft
نقطة الندى 55 °F
الرطوبة 68%
Rainfall 0.00 في
عمق الثلج Not available.
الأشعة فوق البنفسجية 6 out of 12
Pollen Not available.
جودة الهواء Not available.
Flu Activity Not available.
METAR OSLK 191200Z 24008KT 9999 SCT030 19/13 Q1018

More Conditions Fewer Conditions

10-Day Weather Forecast

Almanac

علم الفلك

Apr. 19, 2015 Rise Set
Actual Time
Civil Twilight
Nautical Twilight
Astronomical Twilight
قمر
Length Of Visible Light
طول الیوم
Tomorrow will be .
, % of the Moon is Illuminated

Today's Extremes

Country Highs Country Lows

Community

WunderPhotos

Upload Photos

1,814,775 photos uploaded!

WunderBlogs® & News

Nearby

جودة الهواء

  جودة الهواء AQ Index Pollutant
Not available.

عمق الثلج

Station Depth Elevation

Earthquake Activity

City Distance Mag. Time & Date
Minimum magnitude displayed is 2.5.

Coastal Water Temperatures

مكان درجات الحرارة

Stations

Nearby Weather Stations

Station Location الحرارة رياح باردة نقطة الندى الرطوبة ريح Precip. Elev تحديث Type